sensor_id;sensor_type;location;lat;lon;timestamp;temperature;humidity
28546;DHT22;15749;49.606;8.738;2022-09-13T00:01:40;21.30;78.40
28546;DHT22;15749;49.606;8.738;2022-09-13T00:04:28;21.30;78.40
28546;DHT22;15749;49.606;8.738;2022-09-13T00:07:15;21.20;78.60
28546;DHT22;15749;49.606;8.738;2022-09-13T00:10:03;21.20;79.50
28546;DHT22;15749;49.606;8.738;2022-09-13T00:12:53;21.20;78.90
28546;DHT22;15749;49.606;8.738;2022-09-13T00:15:42;21.20;78.40
28546;DHT22;15749;49.606;8.738;2022-09-13T00:18:30;21.10;78.70
28546;DHT22;15749;49.606;8.738;2022-09-13T00:21:19;21.10;78.50
28546;DHT22;15749;49.606;8.738;2022-09-13T00:24:07;21.10;77.70
28546;DHT22;15749;49.606;8.738;2022-09-13T00:26:55;21.10;78.20
28546;DHT22;15749;49.606;8.738;2022-09-13T00:29:44;21.10;78.30
28546;DHT22;15749;49.606;8.738;2022-09-13T00:32:33;21.10;78.60
28546;DHT22;15749;49.606;8.738;2022-09-13T00:35:22;21.00;79.40
28546;DHT22;15749;49.606;8.738;2022-09-13T00:38:09;21.00;79.00
28546;DHT22;15749;49.606;8.738;2022-09-13T00:40:56;21.00;78.90
28546;DHT22;15749;49.606;8.738;2022-09-13T00:43:47;21.00;79.10
28546;DHT22;15749;49.606;8.738;2022-09-13T00:46:41;20.90;78.60
28546;DHT22;15749;49.606;8.738;2022-09-13T00:49:35;20.90;78.90
28546;DHT22;15749;49.606;8.738;2022-09-13T00:52:27;20.90;79.40
28546;DHT22;15749;49.606;8.738;2022-09-13T00:55:20;20.90;79.10
28546;DHT22;15749;49.606;8.738;2022-09-13T00:58:15;20.80;79.00
28546;DHT22;15749;49.606;8.738;2022-09-13T01:01:10;20.80;79.20
28546;DHT22;15749;49.606;8.738;2022-09-13T01:04:02;20.80;79.40
28546;DHT22;15749;49.606;8.738;2022-09-13T01:06:51;20.80;78.60
28546;DHT22;15749;49.606;8.738;2022-09-13T01:09:42;20.80;79.20
28546;DHT22;15749;49.606;8.738;2022-09-13T01:12:35;20.80;79.20
28546;DHT22;15749;49.606;8.738;2022-09-13T01:15:28;20.70;79.40
28546;DHT22;15749;49.606;8.738;2022-09-13T01:18:16;20.80;79.50
28546;DHT22;15749;49.606;8.738;2022-09-13T01:21:35;20.70;79.20
28546;DHT22;15749;49.606;8.738;2022-09-13T01:32:28;20.60;79.70
28546;DHT22;15749;49.606;8.738;2022-09-13T01:35:30;20.60;79.60
28546;DHT22;15749;49.606;8.738;2022-09-13T01:38:45;20.60;79.90
28546;DHT22;15749;49.606;8.738;2022-09-13T01:42:02;20.50;79.50
28546;DHT22;15749;49.606;8.738;2022-09-13T01:45:04;20.50;79.70
28546;DHT22;15749;49.606;8.738;2022-09-13T01:47:58;20.50;79.60
28546;DHT22;15749;49.606;8.738;2022-09-13T01:50:55;20.50;79.90
28546;DHT22;15749;49.606;8.738;2022-09-13T01:53:51;20.40;80.00
28546;DHT22;15749;49.606;8.738;2022-09-13T01:56:52;20.40;79.90
28546;DHT22;15749;49.606;8.738;2022-09-13T01:59:47;20.40;80.10
28546;DHT22;15749;49.606;8.738;2022-09-13T02:02:39;20.40;80.00
28546;DHT22;15749;49.606;8.738;2022-09-13T02:05:34;20.40;80.10
28546;DHT22;15749;49.606;8.738;2022-09-13T02:08:33;20.40;79.40
28546;DHT22;15749;49.606;8.738;2022-09-13T02:11:23;20.30;79.70
28546;DHT22;15749;49.606;8.738;2022-09-13T02:14:13;20.30;79.20
28546;DHT22;15749;49.606;8.738;2022-09-13T02:17:04;20.30;79.80
28546;DHT22;15749;49.606;8.738;2022-09-13T02:19:57;20.30;79.80
28546;DHT22;15749;49.606;8.738;2022-09-13T02:22:49;20.20;79.80
28546;DHT22;15749;49.606;8.738;2022-09-13T02:25:40;20.20;80.60
28546;DHT22;15749;49.606;8.738;2022-09-13T02:28:31;20.20;79.80
28546;DHT22;15749;49.606;8.738;2022-09-13T02:31:25;20.20;79.80
28546;DHT22;15749;49.606;8.738;2022-09-13T02:34:18;20.20;80.30
28546;DHT22;15749;49.606;8.738;2022-09-13T02:37:08;20.20;79.80
28546;DHT22;15749;49.606;8.738;2022-09-13T02:40:02;20.20;80.80
28546;DHT22;15749;49.606;8.738;2022-09-13T02:42:55;20.20;80.60
28546;DHT22;15749;49.606;8.738;2022-09-13T02:45:47;20.20;79.80
28546;DHT22;15749;49.606;8.738;2022-09-13T02:48:47;20.10;79.40
28546;DHT22;15749;49.606;8.738;2022-09-13T02:51:43;20.10;80.10
28546;DHT22;15749;49.606;8.738;2022-09-13T02:54:37;20.10;79.70
28546;DHT22;15749;49.606;8.738;2022-09-13T02:57:32;20.10;79.50
28546;DHT22;15749;49.606;8.738;2022-09-13T03:00:23;20.10;79.40
28546;DHT22;15749;49.606;8.738;2022-09-13T03:03:13;20.00;79.10
28546;DHT22;15749;49.606;8.738;2022-09-13T03:06:02;20.00;79.20
28546;DHT22;15749;49.606;8.738;2022-09-13T03:08:50;20.00;79.90
28546;DHT22;15749;49.606;8.738;2022-09-13T03:15:16;20.00;79.30
28546;DHT22;15749;49.606;8.738;2022-09-13T03:18:19;20.00;80.00
28546;DHT22;15749;49.606;8.738;2022-09-13T03:21:26;20.00;80.20
28546;DHT22;15749;49.606;8.738;2022-09-13T03:24:27;20.00;79.60
28546;DHT22;15749;49.606;8.738;2022-09-13T03:27:26;20.00;80.10
28546;DHT22;15749;49.606;8.738;2022-09-13T03:30:19;19.90;80.10
28546;DHT22;15749;49.606;8.738;2022-09-13T03:33:16;20.00;79.70
28546;DHT22;15749;49.606;8.738;2022-09-13T03:36:11;19.90;79.50
28546;DHT22;15749;49.606;8.738;2022-09-13T03:39:08;19.90;80.10
28546;DHT22;15749;49.606;8.738;2022-09-13T03:42:02;19.90;80.50
28546;DHT22;15749;49.606;8.738;2022-09-13T03:44:54;19.90;80.00
28546;DHT22;15749;49.606;8.738;2022-09-13T03:47:46;19.80;79.80
28546;DHT22;15749;49.606;8.738;2022-09-13T03:50:35;19.80;79.80
28546;DHT22;15749;49.606;8.738;2022-09-13T03:53:26;19.80;80.00
28546;DHT22;15749;49.606;8.738;2022-09-13T03:56:16;19.80;79.80
28546;DHT22;15749;49.606;8.738;2022-09-13T03:59:05;19.80;80.10
28546;DHT22;15749;49.606;8.738;2022-09-13T04:01:52;19.80;80.10
28546;DHT22;15749;49.606;8.738;2022-09-13T04:04:42;19.80;80.50
28546;DHT22;15749;49.606;8.738;2022-09-13T04:07:30;19.80;80.60
28546;DHT22;15749;49.606;8.738;2022-09-13T04:10:17;19.80;80.50
28546;DHT22;15749;49.606;8.738;2022-09-13T04:13:05;19.80;80.80
28546;DHT22;15749;49.606;8.738;2022-09-13T04:15:54;19.80;80.70
28546;DHT22;15749;49.606;8.738;2022-09-13T04:18:41;19.80;80.90
28546;DHT22;15749;49.606;8.738;2022-09-13T04:21:30;19.70;81.00
28546;DHT22;15749;49.606;8.738;2022-09-13T04:24:18;19.80;82.10
28546;DHT22;15749;49.606;8.738;2022-09-13T04:27:06;19.80;81.40
28546;DHT22;15749;49.606;8.738;2022-09-13T04:29:53;19.70;81.90
28546;DHT22;15749;49.606;8.738;2022-09-13T04:32:42;19.80;81.40
28546;DHT22;15749;49.606;8.738;2022-09-13T04:35:30;19.70;81.70
28546;DHT22;15749;49.606;8.738;2022-09-13T04:38:18;19.80;81.50
28546;DHT22;15749;49.606;8.738;2022-09-13T04:41:06;19.70;81.60
28546;DHT22;15749;49.606;8.738;2022-09-13T04:43:54;19.70;81.80
28546;DHT22;15749;49.606;8.738;2022-09-13T04:46:43;19.70;81.40
28546;DHT22;15749;49.606;8.738;2022-09-13T04:49:33;19.70;82.00
28546;DHT22;15749;49.606;8.738;2022-09-13T04:52:20;19.70;82.10
28546;DHT22;15749;49.606;8.738;2022-09-13T04:55:09;19.70;83.00
28546;DHT22;15749;49.606;8.738;2022-09-13T04:57:56;19.70;82.50
28546;DHT22;15749;49.606;8.738;2022-09-13T05:00:43;19.80;82.30
28546;DHT22;15749;49.606;8.738;2022-09-13T05:03:31;19.70;82.10
28546;DHT22;15749;49.606;8.738;2022-09-13T05:06:19;19.70;82.30
28546;DHT22;15749;49.606;8.738;2022-09-13T05:09:12;19.70;83.10
28546;DHT22;15749;49.606;8.738;2022-09-13T05:12:02;19.70;82.70
28546;DHT22;15749;49.606;8.738;2022-09-13T05:14:50;19.70;82.70
28546;DHT22;15749;49.606;8.738;2022-09-13T05:17:37;19.70;82.30
28546;DHT22;15749;49.606;8.738;2022-09-13T05:20:24;19.70;82.10
28546;DHT22;15749;49.606;8.738;2022-09-13T05:23:12;19.70;82.00
28546;DHT22;15749;49.606;8.738;2022-09-13T05:26:01;19.70;81.90
28546;DHT22;15749;49.606;8.738;2022-09-13T05:28:51;19.70;82.60
28546;DHT22;15749;49.606;8.738;2022-09-13T05:31:41;19.80;82.90
28546;DHT22;15749;49.606;8.738;2022-09-13T05:34:29;19.80;82.40
28546;DHT22;15749;49.606;8.738;2022-09-13T05:37:17;19.70;82.00
28546;DHT22;15749;49.606;8.738;2022-09-13T05:40:06;19.70;82.30
28546;DHT22;15749;49.606;8.738;2022-09-13T05:42:57;19.80;82.50
28546;DHT22;15749;49.606;8.738;2022-09-13T05:45:46;19.70;82.40
28546;DHT22;15749;49.606;8.738;2022-09-13T05:48:34;19.80;82.90
28546;DHT22;15749;49.606;8.738;2022-09-13T05:51:22;19.80;82.70
28546;DHT22;15749;49.606;8.738;2022-09-13T05:54:11;19.80;82.90
28546;DHT22;15749;49.606;8.738;2022-09-13T05:56:59;19.70;83.10
28546;DHT22;15749;49.606;8.738;2022-09-13T05:59:46;19.80;83.00
28546;DHT22;15749;49.606;8.738;2022-09-13T06:02:35;19.70;83.00
28546;DHT22;15749;49.606;8.738;2022-09-13T06:05:23;19.80;84.10
28546;DHT22;15749;49.606;8.738;2022-09-13T06:08:16;19.70;83.40
28546;DHT22;15749;49.606;8.738;2022-09-13T06:11:05;19.80;83.10
28546;DHT22;15749;49.606;8.738;2022-09-13T06:13:54;19.70;83.60
28546;DHT22;15749;49.606;8.738;2022-09-13T06:16:42;19.80;83.80
28546;DHT22;15749;49.606;8.738;2022-09-13T06:19:30;19.80;84.00
28546;DHT22;15749;49.606;8.738;2022-09-13T06:22:18;19.80;84.10
28546;DHT22;15749;49.606;8.738;2022-09-13T06:25:20;19.80;84.00
28546;DHT22;15749;49.606;8.738;2022-09-13T06:28:07;19.80;84.40
28546;DHT22;15749;49.606;8.738;2022-09-13T06:31:00;19.80;85.40
28546;DHT22;15749;49.606;8.738;2022-09-13T06:33:48;19.80;85.00
28546;DHT22;15749;49.606;8.738;2022-09-13T06:36:35;19.90;84.00
28546;DHT22;15749;49.606;8.738;2022-09-13T06:39:23;19.80;83.50
28546;DHT22;15749;49.606;8.738;2022-09-13T06:42:12;19.80;83.20
28546;DHT22;15749;49.606;8.738;2022-09-13T06:44:59;19.80;83.50
28546;DHT22;15749;49.606;8.738;2022-09-13T06:47:46;19.90;83.90
28546;DHT22;15749;49.606;8.738;2022-09-13T06:50:33;19.80;84.20
28546;DHT22;15749;49.606;8.738;2022-09-13T06:53:21;19.80;84.10
28546;DHT22;15749;49.606;8.738;2022-09-13T06:56:10;19.90;84.30
28546;DHT22;15749;49.606;8.738;2022-09-13T06:59:02;19.90;84.80
28546;DHT22;15749;49.606;8.738;2022-09-13T07:01:50;19.90;84.50
28546;DHT22;15749;49.606;8.738;2022-09-13T07:04:37;19.90;84.30
28546;DHT22;15749;49.606;8.738;2022-09-13T07:07:25;19.90;84.50
28546;DHT22;15749;49.606;8.738;2022-09-13T07:10:12;19.90;84.80
28546;DHT22;15749;49.606;8.738;2022-09-13T07:12:59;20.00;85.00
28546;DHT22;15749;49.606;8.738;2022-09-13T07:15:48;20.00;84.80
28546;DHT22;15749;49.606;8.738;2022-09-13T07:18:36;20.00;85.00
28546;DHT22;15749;49.606;8.738;2022-09-13T07:21:25;20.00;85.10
28546;DHT22;15749;49.606;8.738;2022-09-13T07:24:13;20.00;85.80
28546;DHT22;15749;49.606;8.738;2022-09-13T07:27:01;20.10;84.90
28546;DHT22;15749;49.606;8.738;2022-09-13T07:29:48;20.10;85.10
28546;DHT22;15749;49.606;8.738;2022-09-13T07:32:37;20.10;86.00
28546;DHT22;15749;49.606;8.738;2022-09-13T07:35:24;20.10;85.60
28546;DHT22;15749;49.606;8.738;2022-09-13T07:38:12;20.10;86.40
28546;DHT22;15749;49.606;8.738;2022-09-13T07:40:59;20.20;86.70
28546;DHT22;15749;49.606;8.738;2022-09-13T07:43:47;20.20;86.30
28546;DHT22;15749;49.606;8.738;2022-09-13T07:46:35;20.20;86.60
28546;DHT22;15749;49.606;8.738;2022-09-13T07:49:26;20.20;86.40
28546;DHT22;15749;49.606;8.738;2022-09-13T07:52:13;20.30;86.40
28546;DHT22;15749;49.606;8.738;2022-09-13T07:55:01;20.30;86.20
28546;DHT22;15749;49.606;8.738;2022-09-13T07:57:48;20.40;86.40
28546;DHT22;15749;49.606;8.738;2022-09-13T08:00:35;20.40;86.50
28546;DHT22;15749;49.606;8.738;2022-09-13T08:03:22;20.40;86.70
28546;DHT22;15749;49.606;8.738;2022-09-13T08:06:11;20.40;86.60
28546;DHT22;15749;49.606;8.738;2022-09-13T08:08:59;20.40;86.60
28546;DHT22;15749;49.606;8.738;2022-09-13T08:11:48;20.50;86.60
28546;DHT22;15749;49.606;8.738;2022-09-13T08:14:38;20.50;86.80
28546;DHT22;15749;49.606;8.738;2022-09-13T08:17:25;20.50;86.90
28546;DHT22;15749;49.606;8.738;2022-09-13T08:20:12;20.60;87.10
28546;DHT22;15749;49.606;8.738;2022-09-13T08:23:02;20.60;87.00
28546;DHT22;15749;49.606;8.738;2022-09-13T08:25:51;20.60;87.20
28546;DHT22;15749;49.606;8.738;2022-09-13T08:28:39;20.70;87.40
28546;DHT22;15749;49.606;8.738;2022-09-13T08:31:28;20.70;87.80
28546;DHT22;15749;49.606;8.738;2022-09-13T08:34:16;20.70;87.90
28546;DHT22;15749;49.606;8.738;2022-09-13T08:37:06;20.80;88.10
28546;DHT22;15749;49.606;8.738;2022-09-13T08:39:54;20.80;88.20
28546;DHT22;15749;49.606;8.738;2022-09-13T08:42:50;20.80;88.30
28546;DHT22;15749;49.606;8.738;2022-09-13T08:45:40;20.90;88.50
28546;DHT22;15749;49.606;8.738;2022-09-13T08:48:32;20.90;88.10
28546;DHT22;15749;49.606;8.738;2022-09-13T08:51:30;20.90;88.30
28546;DHT22;15749;49.606;8.738;2022-09-13T08:54:19;21.00;89.30
28546;DHT22;15749;49.606;8.738;2022-09-13T08:57:14;21.10;88.50
28546;DHT22;15749;49.606;8.738;2022-09-13T09:00:11;21.10;88.90
28546;DHT22;15749;49.606;8.738;2022-09-13T09:03:16;21.10;88.90
28546;DHT22;15749;49.606;8.738;2022-09-13T09:06:11;21.20;89.30
28546;DHT22;15749;49.606;8.738;2022-09-13T09:09:05;21.20;89.30
28546;DHT22;15749;49.606;8.738;2022-09-13T09:11:58;21.30;88.90
28546;DHT22;15749;49.606;8.738;2022-09-13T09:14:57;21.30;88.80
28546;DHT22;15749;49.606;8.738;2022-09-13T09:17:53;21.40;88.90
28546;DHT22;15749;49.606;8.738;2022-09-13T09:20:44;21.40;88.70
28546;DHT22;15749;49.606;8.738;2022-09-13T09:23:37;21.50;88.70
28546;DHT22;15749;49.606;8.738;2022-09-13T09:26:30;21.50;88.40
28546;DHT22;15749;49.606;8.738;2022-09-13T09:29:19;21.60;88.70
28546;DHT22;15749;49.606;8.738;2022-09-13T09:32:31;21.60;89.10
28546;DHT22;15749;49.606;8.738;2022-09-13T09:35:35;21.70;89.20
28546;DHT22;15749;49.606;8.738;2022-09-13T09:38:36;21.80;88.70
28546;DHT22;15749;49.606;8.738;2022-09-13T09:41:27;21.80;88.80
28546;DHT22;15749;49.606;8.738;2022-09-13T09:44:19;21.80;88.60
28546;DHT22;15749;49.606;8.738;2022-09-13T09:47:14;21.90;88.70
28546;DHT22;15749;49.606;8.738;2022-09-13T09:50:09;21.90;88.30
28546;DHT22;15749;49.606;8.738;2022-09-13T09:53:05;22.00;87.90
28546;DHT22;15749;49.606;8.738;2022-09-13T09:55:58;22.00;87.50
28546;DHT22;15749;49.606;8.738;2022-09-13T09:58:50;22.10;88.20
28546;DHT22;15749;49.606;8.738;2022-09-13T10:01:39;22.10;88.10
28546;DHT22;15749;49.606;8.738;2022-09-13T10:04:29;22.20;88.00
28546;DHT22;15749;49.606;8.738;2022-09-13T10:07:25;22.20;88.20
28546;DHT22;15749;49.606;8.738;2022-09-13T10:10:22;22.30;88.00
28546;DHT22;15749;49.606;8.738;2022-09-13T10:13:16;22.30;88.00
28546;DHT22;15749;49.606;8.738;2022-09-13T10:16:22;22.30;87.40
28546;DHT22;15749;49.606;8.738;2022-09-13T10:19:23;22.40;88.00
28546;DHT22;15749;49.606;8.738;2022-09-13T10:22:13;22.40;88.30
28546;DHT22;15749;49.606;8.738;2022-09-13T10:25:14;22.50;88.30
28546;DHT22;15749;49.606;8.738;2022-09-13T10:28:12;22.60;87.90
28546;DHT22;15749;49.606;8.738;2022-09-13T10:31:04;22.60;88.20
28546;DHT22;15749;49.606;8.738;2022-09-13T10:33:57;22.70;88.30
28546;DHT22;15749;49.606;8.738;2022-09-13T10:36:51;22.70;88.20
28546;DHT22;15749;49.606;8.738;2022-09-13T10:39:55;22.80;88.60
28546;DHT22;15749;49.606;8.738;2022-09-13T10:42:50;22.80;88.20
28546;DHT22;15749;49.606;8.738;2022-09-13T10:45:40;22.90;88.30
28546;DHT22;15749;49.606;8.738;2022-09-13T10:48:29;23.00;88.50
28546;DHT22;15749;49.606;8.738;2022-09-13T10:51:30;23.00;89.20
28546;DHT22;15749;49.606;8.738;2022-09-13T10:54:22;23.10;88.40
28546;DHT22;15749;49.606;8.738;2022-09-13T10:57:31;23.20;88.10
28546;DHT22;15749;49.606;8.738;2022-09-13T11:00:22;23.20;88.40
28546;DHT22;15749;49.606;8.738;2022-09-13T11:03:28;23.30;88.70
28546;DHT22;15749;49.606;8.738;2022-09-13T11:06:32;23.40;88.60
28546;DHT22;15749;49.606;8.738;2022-09-13T11:09:26;23.40;88.50
28546;DHT22;15749;49.606;8.738;2022-09-13T11:12:23;23.40;89.40
28546;DHT22;15749;49.606;8.738;2022-09-13T11:15:29;23.50;88.80
28546;DHT22;15749;49.606;8.738;2022-09-13T11:18:38;23.60;88.80
28546;DHT22;15749;49.606;8.738;2022-09-13T11:21:44;23.60;88.70
28546;DHT22;15749;49.606;8.738;2022-09-13T11:25:02;23.60;88.80
28546;DHT22;15749;49.606;8.738;2022-09-13T11:28:06;23.60;88.60
28546;DHT22;15749;49.606;8.738;2022-09-13T11:31:15;23.70;88.80
28546;DHT22;15749;49.606;8.738;2022-09-13T11:34:26;23.70;88.10
28546;DHT22;15749;49.606;8.738;2022-09-13T11:37:35;23.70;87.90
28546;DHT22;15749;49.606;8.738;2022-09-13T11:40:44;23.70;88.40
28546;DHT22;15749;49.606;8.738;2022-09-13T11:44:17;23.80;88.40
28546;DHT22;15749;49.606;8.738;2022-09-13T11:47:19;23.80;88.80
28546;DHT22;15749;49.606;8.738;2022-09-13T11:50:24;23.80;88.80
28546;DHT22;15749;49.606;8.738;2022-09-13T11:53:36;23.80;89.00
28546;DHT22;15749;49.606;8.738;2022-09-13T11:56:41;23.90;90.00
28546;DHT22;15749;49.606;8.738;2022-09-13T11:59:37;23.90;89.40
28546;DHT22;15749;49.606;8.738;2022-09-13T12:02:41;23.90;89.80
28546;DHT22;15749;49.606;8.738;2022-09-13T12:05:33;24.00;89.90
28546;DHT22;15749;49.606;8.738;2022-09-13T12:08:30;23.90;89.90
28546;DHT22;15749;49.606;8.738;2022-09-13T12:11:20;24.00;90.00
28546;DHT22;15749;49.606;8.738;2022-09-13T12:14:14;24.00;90.10
28546;DHT22;15749;49.606;8.738;2022-09-13T12:17:14;24.00;90.10
28546;DHT22;15749;49.606;8.738;2022-09-13T12:20:15;24.00;90.60
28546;DHT22;15749;49.606;8.738;2022-09-13T12:23:13;24.00;90.30
28546;DHT22;15749;49.606;8.738;2022-09-13T12:26:06;24.00;90.30
28546;DHT22;15749;49.606;8.738;2022-09-13T12:28:58;24.00;90.30
28546;DHT22;15749;49.606;8.738;2022-09-13T12:31:49;24.00;90.30
28546;DHT22;15749;49.606;8.738;2022-09-13T12:34:43;24.10;90.30
28546;DHT22;15749;49.606;8.738;2022-09-13T12:37:53;24.10;90.50
28546;DHT22;15749;49.606;8.738;2022-09-13T12:41:07;24.10;90.50
28546;DHT22;15749;49.606;8.738;2022-09-13T12:48:07;24.10;90.60
28546;DHT22;15749;49.606;8.738;2022-09-13T12:51:13;24.10;90.50
28546;DHT22;15749;49.606;8.738;2022-09-13T12:54:27;24.10;90.50
28546;DHT22;15749;49.606;8.738;2022-09-13T12:57:34;24.10;90.60
28546;DHT22;15749;49.606;8.738;2022-09-13T13:00:28;24.10;90.60
28546;DHT22;15749;49.606;8.738;2022-09-13T13:03:18;24.10;90.50
28546;DHT22;15749;49.606;8.738;2022-09-13T13:06:28;24.20;90.50
28546;DHT22;15749;49.606;8.738;2022-09-13T13:09:23;24.10;90.60
28546;DHT22;15749;49.606;8.738;2022-09-13T13:12:26;24.20;90.60
28546;DHT22;15749;49.606;8.738;2022-09-13T13:18:49;24.20;90.70
28546;DHT22;15749;49.606;8.738;2022-09-13T13:21:39;24.20;90.60
28546;DHT22;15749;49.606;8.738;2022-09-13T13:24:46;24.20;90.60
28546;DHT22;15749;49.606;8.738;2022-09-13T13:27:40;24.30;90.80
28546;DHT22;15749;49.606;8.738;2022-09-13T13:30:52;24.30;90.70
28546;DHT22;15749;49.606;8.738;2022-09-13T13:33:49;24.20;90.60
28546;DHT22;15749;49.606;8.738;2022-09-13T13:36:45;24.30;90.60
28546;DHT22;15749;49.606;8.738;2022-09-13T13:39:38;24.30;90.60
28546;DHT22;15749;49.606;8.738;2022-09-13T13:42:27;24.30;91.00
28546;DHT22;15749;49.606;8.738;2022-09-13T13:45:21;24.30;90.70
28546;DHT22;15749;49.606;8.738;2022-09-13T13:48:13;24.30;90.60
28546;DHT22;15749;49.606;8.738;2022-09-13T13:51:18;24.40;90.70
28546;DHT22;15749;49.606;8.738;2022-09-13T13:54:30;24.40;90.60
28546;DHT22;15749;49.606;8.738;2022-09-13T13:57:41;24.40;90.60
28546;DHT22;15749;49.606;8.738;2022-09-13T14:00:45;24.50;90.70
28546;DHT22;15749;49.606;8.738;2022-09-13T14:11:32;24.60;90.60
28546;DHT22;15749;49.606;8.738;2022-09-13T14:14:40;24.60;90.40
28546;DHT22;15749;49.606;8.738;2022-09-13T14:21:18;24.70;90.40
28546;DHT22;15749;49.606;8.738;2022-09-13T14:24:15;24.70;90.50
28546;DHT22;15749;49.606;8.738;2022-09-13T14:27:09;24.70;90.60
28546;DHT22;15749;49.606;8.738;2022-09-13T14:30:04;24.70;90.40
28546;DHT22;15749;49.606;8.738;2022-09-13T14:33:03;24.70;90.30
28546;DHT22;15749;49.606;8.738;2022-09-13T14:36:04;24.70;90.70
28546;DHT22;15749;49.606;8.738;2022-09-13T14:38:57;24.70;90.50
28546;DHT22;15749;49.606;8.738;2022-09-13T14:41:45;24.80;90.60
28546;DHT22;15749;49.606;8.738;2022-09-13T14:44:37;24.80;90.40
28546;DHT22;15749;49.606;8.738;2022-09-13T14:47:32;24.80;90.90
28546;DHT22;15749;49.606;8.738;2022-09-13T14:50:24;24.80;90.70
28546;DHT22;15749;49.606;8.738;2022-09-13T14:53:15;24.80;90.60
28546;DHT22;15749;49.606;8.738;2022-09-13T14:56:06;24.90;90.70
28546;DHT22;15749;49.606;8.738;2022-09-13T14:58:57;24.80;90.70
28546;DHT22;15749;49.606;8.738;2022-09-13T15:01:46;24.80;90.70
28546;DHT22;15749;49.606;8.738;2022-09-13T15:04:38;24.90;90.90
28546;DHT22;15749;49.606;8.738;2022-09-13T15:07:30;24.90;90.90
28546;DHT22;15749;49.606;8.738;2022-09-13T15:10:22;24.90;90.80
28546;DHT22;15749;49.606;8.738;2022-09-13T15:13:11;24.90;90.80
28546;DHT22;15749;49.606;8.738;2022-09-13T15:16:01;24.90;90.80
28546;DHT22;15749;49.606;8.738;2022-09-13T15:19:36;24.90;90.80
28546;DHT22;15749;49.606;8.738;2022-09-13T15:22:29;24.90;90.80
28546;DHT22;15749;49.606;8.738;2022-09-13T15:25:19;24.90;91.20
28546;DHT22;15749;49.606;8.738;2022-09-13T15:28:21;24.90;90.90
28546;DHT22;15749;49.606;8.738;2022-09-13T15:31:11;24.90;91.00
28546;DHT22;15749;49.606;8.738;2022-09-13T15:34:10;24.90;90.90
28546;DHT22;15749;49.606;8.738;2022-09-13T15:37:08;24.90;90.90
28546;DHT22;15749;49.606;8.738;2022-09-13T15:40:18;24.90;90.90
28546;DHT22;15749;49.606;8.738;2022-09-13T15:43:07;24.90;91.00
28546;DHT22;15749;49.606;8.738;2022-09-13T15:45:56;25.00;91.10
28546;DHT22;15749;49.606;8.738;2022-09-13T15:48:50;25.00;90.80
28546;DHT22;15749;49.606;8.738;2022-09-13T15:51:41;25.00;90.80
28546;DHT22;15749;49.606;8.738;2022-09-13T15:54:33;25.00;90.80
28546;DHT22;15749;49.606;8.738;2022-09-13T15:57:23;24.90;90.90
28546;DHT22;15749;49.606;8.738;2022-09-13T16:00:19;25.00;91.00
28546;DHT22;15749;49.606;8.738;2022-09-13T16:03:08;24.90;91.00
28546;DHT22;15749;49.606;8.738;2022-09-13T16:05:56;25.00;90.90
28546;DHT22;15749;49.606;8.738;2022-09-13T16:08:44;25.00;90.90
28546;DHT22;15749;49.606;8.738;2022-09-13T16:11:32;25.00;90.90
28546;DHT22;15749;49.606;8.738;2022-09-13T16:14:20;25.00;90.90
28546;DHT22;15749;49.606;8.738;2022-09-13T16:17:11;25.00;90.90
28546;DHT22;15749;49.606;8.738;2022-09-13T16:20:01;25.00;90.90
28546;DHT22;15749;49.606;8.738;2022-09-13T16:22:49;25.00;91.00
28546;DHT22;15749;49.606;8.738;2022-09-13T16:25:36;25.00;90.90
28546;DHT22;15749;49.606;8.738;2022-09-13T16:28:26;25.00;90.90
28546;DHT22;15749;49.606;8.738;2022-09-13T16:31:14;25.00;90.90
28546;DHT22;15749;49.606;8.738;2022-09-13T16:34:02;25.00;90.90
28546;DHT22;15749;49.606;8.738;2022-09-13T16:36:50;25.00;90.90
28546;DHT22;15749;49.606;8.738;2022-09-13T16:39:37;25.00;90.90
28546;DHT22;15749;49.606;8.738;2022-09-13T16:42:25;25.00;91.00
28546;DHT22;15749;49.606;8.738;2022-09-13T16:45:14;25.00;91.00
28546;DHT22;15749;49.606;8.738;2022-09-13T16:48:02;25.00;91.10
28546;DHT22;15749;49.606;8.738;2022-09-13T16:50:50;25.00;91.00
28546;DHT22;15749;49.606;8.738;2022-09-13T16:53:40;25.00;91.10
28546;DHT22;15749;49.606;8.738;2022-09-13T16:56:28;25.00;91.10
28546;DHT22;15749;49.606;8.738;2022-09-13T16:59:16;25.00;91.10
28546;DHT22;15749;49.606;8.738;2022-09-13T17:02:05;25.00;91.10
28546;DHT22;15749;49.606;8.738;2022-09-13T17:04:53;25.00;91.10
28546;DHT22;15749;49.606;8.738;2022-09-13T17:07:41;25.00;91.20
28546;DHT22;15749;49.606;8.738;2022-09-13T17:10:29;25.00;91.10
28546;DHT22;15749;49.606;8.738;2022-09-13T17:13:16;25.00;91.20
28546;DHT22;15749;49.606;8.738;2022-09-13T17:16:04;25.00;91.20
28546;DHT22;15749;49.606;8.738;2022-09-13T17:18:55;25.00;91.10
28546;DHT22;15749;49.606;8.738;2022-09-13T17:21:44;25.00;91.20
28546;DHT22;15749;49.606;8.738;2022-09-13T17:24:32;25.00;91.20
28546;DHT22;15749;49.606;8.738;2022-09-13T17:27:20;25.00;91.60
28546;DHT22;15749;49.606;8.738;2022-09-13T17:30:09;24.90;91.20
28546;DHT22;15749;49.606;8.738;2022-09-13T17:32:58;25.00;91.30
28546;DHT22;15749;49.606;8.738;2022-09-13T17:35:59;24.90;91.30
28546;DHT22;15749;49.606;8.738;2022-09-13T17:38:46;25.00;91.40
28546;DHT22;15749;49.606;8.738;2022-09-13T17:41:34;24.90;91.30
28546;DHT22;15749;49.606;8.738;2022-09-13T17:44:22;25.00;91.70
28546;DHT22;15749;49.606;8.738;2022-09-13T17:47:09;24.90;91.30
28546;DHT22;15749;49.606;8.738;2022-09-13T17:49:57;24.90;91.30
28546;DHT22;15749;49.606;8.738;2022-09-13T17:52:45;24.90;91.60
28546;DHT22;15749;49.606;8.738;2022-09-13T17:55:33;24.90;91.30
28546;DHT22;15749;49.606;8.738;2022-09-13T17:58:23;24.90;91.30
28546;DHT22;15749;49.606;8.738;2022-09-13T18:01:12;24.90;91.30
28546;DHT22;15749;49.606;8.738;2022-09-13T18:04:00;24.90;91.00
28546;DHT22;15749;49.606;8.738;2022-09-13T18:06:49;24.90;91.20
28546;DHT22;15749;49.606;8.738;2022-09-13T18:09:38;24.90;91.40
28546;DHT22;15749;49.606;8.738;2022-09-13T18:12:26;24.90;91.30
28546;DHT22;15749;49.606;8.738;2022-09-13T18:15:13;24.90;91.10
28546;DHT22;15749;49.606;8.738;2022-09-13T18:18:01;24.90;91.30
28546;DHT22;15749;49.606;8.738;2022-09-13T18:20:49;24.80;91.10
28546;DHT22;15749;49.606;8.738;2022-09-13T18:23:36;24.90;91.20
28546;DHT22;15749;49.606;8.738;2022-09-13T18:26:26;24.80;91.20
28546;DHT22;15749;49.606;8.738;2022-09-13T18:29:14;24.80;91.20
28546;DHT22;15749;49.606;8.738;2022-09-13T18:32:03;24.80;91.20
28546;DHT22;15749;49.606;8.738;2022-09-13T18:34:51;24.80;91.20
28546;DHT22;15749;49.606;8.738;2022-09-13T18:37:38;24.70;91.20
28546;DHT22;15749;49.606;8.738;2022-09-13T18:40:26;24.80;91.20
28546;DHT22;15749;49.606;8.738;2022-09-13T18:43:15;24.70;91.50